M I D A S
Marine Information and Data Acquisition System
Tripno 2199 of the Zeeleeuw from 2011-10-17 06:50:59 to 2011-10-17 16:44:45
Back to CruiseResearch ActivitiesStationsMapUnderway DataData graphs

EquipmentUnitsComment
TimeDGPSUTC
LatitudeDGPSDM.mWGS84
LongitudeDGPSDM.mWGS84
TemperatureSBE03/SBE38deg celciusITS90
ConductivitySBE21S/mITS90
SalinitySBE21 Practical Salinity Units
ChlorophylAChelsea fluorimeterg/lCalibrated in Aceton
Missing or incorrect values are displayed as -999
Sea surface data collected by the RV Zeeleeuw from 2011-10-17 06:19:01 to 2011-10-17 16:52:47
Time Latitude Longitude Temperature Conductivity Salinity ChlorophylA
2011-10-17 06:20:05 51°13.636 2°56.017 20.0076 0.014849 0.074546 -3.020363
2011-10-17 06:21:06 51°13.636 2°56.018 20.0038 0.014849 0.074577 -3.020363
2011-10-17 06:22:06 51°13.636 2°56.017 20.0021 0.014849 0.074606 -3.020363
2011-10-17 06:23:05 51°13.636 2°56.016 19.9955 0.014849 0.074631 -3.020363
2011-10-17 06:24:04 51°13.637 2°56.014 20.0131 0.014849 0.074654 -3.020363
2011-10-17 06:25:03 51°13.637 2°56.014 20.0042 0.014746 0.074195 -3.020363
2011-10-17 06:26:03 51°13.637 2°56.015 20.0045 0.014746 0.07422 -3.020363
2011-10-17 06:27:03 51°13.637 2°56.015 20.0131 0.014746 0.074247 -3.020363
2011-10-17 06:28:03 51°13.637 2°56.015 20.0206 0.014746 0.074278 -3.020363
2011-10-17 06:29:03 51°13.637 2°56.016 20.0171 0.014746 0.074311 -3.020363
2011-10-17 06:30:03 51°13.637 2°56.016 20.0244 0.014746 0.074343 -3.020363
2011-10-17 06:31:03 51°13.637 2°56.016 20.0275 0.014746 0.074374 -3.020363
2011-10-17 06:32:03 51°13.638 2°56.016 20.0342 0.014746 0.074406 -3.020363
2011-10-17 06:33:03 51°13.638 2°56.016 20.0335 0.014746 0.074437 -3.020363
2011-10-17 06:34:03 51°13.637 2°56.016 20.0318 0.014746 0.074469 -3.020363
2011-10-17 06:35:03 51°13.637 2°56.015 20.0457 0.014746 0.074498 -3.020363
2011-10-17 06:36:03 51°13.637 2°56.016 20.0497 0.014746 0.074521 -3.020363
2011-10-17 06:37:03 51°13.637 2°56.016 20.0515 0.014746 0.074545 -3.020363
2011-10-17 06:38:03 51°13.637 2°56.015 20.0562 0.014643 0.074086 -3.020363
2011-10-17 06:39:03 51°13.636 2°56.015 20.058 0.014643 0.07411 -3.020363
2011-10-17 06:40:03 51°13.637 2°56.017 20.0637 0.014643 0.074134 -3.020363
2011-10-17 06:41:03 51°13.635 2°56.015 20.0704 0.014643 0.074155 -3.020363
2011-10-17 06:42:03 51°13.635 2°56.015 20.0745 0.014643 0.074174 -3.020363
2011-10-17 06:43:03 51°13.636 2°56.014 20.0856 0.014643 0.074193 -3.020363
2011-10-17 06:44:03 51°13.636 2°56.015 20.0885 0.014643 0.074216 -3.020363
2011-10-17 06:45:03 51°13.637 2°56.015 20.0962 0.014643 0.074242 -3.020363
2011-10-17 06:46:03 51°13.638 2°56.016 20.0988 0.014643 0.074271 -3.020363
2011-10-17 06:47:03 51°13.639 2°56.016 20.1023 0.014643 0.074298 -3.020363
2011-10-17 06:48:03 51°13.64 2°56.016 20.1365 0.014643 0.074325 -3.020363
2011-10-17 06:49:03 51°13.64 2°56.017 20.0986 0.014643 0.074358 -3.020363
2011-10-17 06:50:03 51°13.639 2°56.017 20.155 0.014643 0.074393 -3.020363
2011-10-17 06:51:02 51°13.641 2°56.017 20.1325 0.014643 0.074428 -3.020363
2011-10-17 06:52:03 51°13.64 2°56.016 20.1099 0.01454 0.073971 -3.020363
2011-10-17 06:53:03 51°13.64 2°56.015 20.1698 0.01454 0.073997 -3.020363
2011-10-17 06:54:03 51°13.638 2°56.012 20.1653 0.01454 0.074023 -3.020363
2011-10-17 06:55:03 51°13.621 2°56.031 20.0027 0.01454 0.074046 -3.020363
2011-10-17 06:56:06 51°13.631 2°55.997 20.1169 0.01454 0.074071 -3.020363
2011-10-17 06:57:06 51°13.669 2°55.902 20.1588 0.01454 0.074104 -3.020363
2011-10-17 06:58:06 51°13.697 2°55.803 20.1665 0.01454 0.074139 -3.020363
2011-10-17 06:59:06 51°13.702 2°55.738 20.2111 0.01454 0.074174 -3.020363
2011-10-17 07:00:04 51°13.707 2°55.741 20.1787 0.01454 0.074211 -3.020363
2011-10-17 07:01:06 51°13.717 2°55.727 20.1791 0.01454 0.07424 -3.020363
2011-10-17 07:02:04 51°13.81 2°55.657 19.9794 0.01454 0.074262 -3.020363
2011-10-17 07:03:03 51°13.939 2°55.574 20.0912 0.01454 0.074277 -3.020363
2011-10-17 07:04:03 51°14.072 2°55.488 20.1236 0.01454 0.074295 -3.020363
2011-10-17 07:05:05 51°14.217 2°55.355 20.0562 0.01454 0.074313 -3.020363
2011-10-17 07:06:04 51°14.373 2°55.213 20.0555 0.014437 0.073846 -3.020363
2011-10-17 07:07:03 51°14.531 2°55.056 20.0538 0.014437 0.073864 -3.020363
2011-10-17 07:08:03 51°14.696 2°54.87 15.3443 4.798423 34.58603 -3.020363
2011-10-17 07:09:03 51°14.881 2°54.757 14.882 3.991166 31.717455 -3.020363
2011-10-17 07:10:03 51°15.076 2°54.741 14.811 3.883511 31.150775 -3.020363
2011-10-17 07:11:03 51°15.264 2°54.664 14.7976 3.829639 30.758676 -3.020363
2011-10-17 07:12:03 51°15.456 2°54.587 14.9138 3.834404 30.800614 -3.020363
2011-10-17 07:13:03 51°15.65 2°54.522 15.0119 3.839583 30.769253 -3.020363
2011-10-17 07:14:03 51°15.845 2°54.454 15.0545 3.708029 29.540026 -3.020363
2011-10-17 07:15:03 51°16.012 2°54.369 15.0992 3.762406 29.9896 -3.020363
2011-10-17 07:16:03 51°16.114 2°54.333 15.0921 3.731228 29.699121 -3.020363
2011-10-17 07:17:03 51°16.178 2°54.302 15.084 3.716003 29.573828 -3.020363
2011-10-17 07:18:02 51°16.233 2°54.275 15.0792 3.712482 29.547046 -3.020363
2011-10-17 07:19:03 51°16.254 2°54.267 15.0769 3.709478 29.525464 -3.020363
2011-10-17 07:20:02 51°16.263 2°54.26 15.0519 3.732782 29.73415 -3.020363
2011-10-17 07:21:03 51°16.271 2°54.252 15.0464 3.713 29.567819 -3.020363
2011-10-17 07:22:03 51°16.278 2°54.241 15.0421 3.481777 27.535892 -3.020363
2011-10-17 07:23:03 51°16.285 2°54.229 15.0448 3.577028 28.375334 -3.020363
2011-10-17 07:24:03 51°16.29 2°54.215 15.0461 3.579202 28.396864 -3.020363
2011-10-17 07:25:03 51°16.295 2°54.201 15.0439 3.56336 28.257474 -3.020363
2011-10-17 07:26:03 51°16.299 2°54.185 15.0539 3.65086 29.02668 -3.020363
2011-10-17 07:27:03 51°16.302 2°54.169 15.0602 3.626628 28.808022 -3.020363
2011-10-17 07:28:03 51°16.304 2°54.152 15.0543 3.439955 27.167977 -3.020363
2011-10-17 07:29:03 51°16.305 2°54.137 15.0599 3.590385 28.490511 -3.020363
2011-10-17 07:30:03 51°16.306 2°54.125 15.0618 3.517804 27.84308 -3.020363
2011-10-17 07:31:03 51°16.306 2°54.115 15.0479 3.454137 27.289201 -3.020363
2011-10-17 07:32:03 51°16.306 2°54.107 15.0536 3.480328 27.523191 -3.020363
2011-10-17 07:33:03 51°16.305 2°54.1 15.0663 3.592456 28.505142 -3.020363
2011-10-17 07:34:03 51°16.304 2°54.093 15.0579 3.593595 28.509164 -3.020363
2011-10-17 07:35:05 51°16.272 2°54.081 15.0305 3.510143 27.785227 -3.020363
2011-10-17 07:36:06 51°16.213 2°54.032 15.033 3.386338 26.719721 -3.020363
2011-10-17 07:37:04 51°16.202 2°54.038 15.0383 3.511075 27.808633 -3.020363
2011-10-17 07:38:03 51°16.218 2°54.16 15.0372 3.528365 27.959311 -3.020363
2011-10-17 07:39:03 51°16.255 2°54.31 15.0284 3.522671 27.9087 -3.020363
2011-10-17 07:40:03 51°16.286 2°54.343 15.0224 3.53934 28.062262 -3.020363
2011-10-17 07:41:03 51°16.281 2°54.331 15.0201 3.531057 27.993584 -3.020363
2011-10-17 07:42:03 51°16.278 2°54.322 15.022 3.438403 27.181867 -3.020363
2011-10-17 07:43:03 51°16.275 2°54.313 15.0219 3.55632 28.21458 -3.020363
2011-10-17 07:44:03 51°16.29 2°54.305 15.02 3.528262 27.969013 -3.020363
2011-10-17 07:45:02 51°16.386 2°54.205 15.0006 3.421116 27.033976 -3.020363
2011-10-17 07:46:03 51°16.492 2°53.938 14.9956 3.420702 27.042896 -3.020363
2011-10-17 07:47:03 51°16.598 2°53.654 15.0038 3.537062 28.064131 -3.020363
2011-10-17 07:48:03 51°16.721 2°53.39 15.0268 3.520807 27.913512 -3.020363
2011-10-17 07:49:02 51°16.847 2°53.139 15.0612 3.37578 26.626967 -3.020363
2011-10-17 07:50:03 51°16.97 2°52.877 15.1002 3.441611 27.177888 -3.020363
2011-10-17 07:51:03 51°17.117 2°52.652 15.1275 3.380023 26.615802 -3.020363
2011-10-17 07:52:03 51°17.28 2°52.462 15.1435 3.401655 26.787545 -3.020363
2011-10-17 07:53:03 51°17.441 2°52.266 15.1719 3.516147 27.779422 -3.020363
2011-10-17 07:54:03 51°17.595 2°52.054 15.2231 3.504965 27.655954 -3.020363
2011-10-17 07:55:03 51°17.746 2°51.838 15.232 3.478359 27.393502 -3.020363
2011-10-17 07:56:03 51°17.899 2°51.625 15.2429 3.525464 27.800308 -3.020363
2011-10-17 07:57:03 51°18.056 2°51.418 15.267 3.384369 26.558806 -3.020363
2011-10-17 07:58:02 51°18.221 2°51.234 15.2867 3.47546 27.337275 -3.020363
2011-10-17 07:59:03 51°18.354 2°51.079 15.308 3.476081 27.327818 -3.020363
2011-10-17 08:00:03 51°18.426 2°51.033 15.3174 3.411176 26.750921 -3.020363
2011-10-17 08:01:02 51°18.467 2°51.052 15.3198 3.520079 27.69406 -3.020363
2011-10-17 08:02:03 51°18.501 2°51.059 15.3194 3.320304 25.957999 -3.020363
2011-10-17 08:03:03 51°18.512 2°51.052 15.3194 3.409416 26.72894 -3.020363
2011-10-17 08:04:03 51°18.517 2°51.043 15.3278 3.395236 26.605891 -3.020363
2011-10-17 08:05:03 51°18.521 2°51.035 15.3637 3.477633 27.30765 -3.020363
2011-10-17 08:06:03 51°18.524 2°51.026 15.3369 3.527119 27.729966 -3.020363
2011-10-17 08:07:02 51°18.526 2°51.018 15.3431 3.409002 26.708049 -3.020363
2011-10-17 08:08:03 51°18.528 2°51.012 15.3183 3.454858 27.112427 -3.020363
2011-10-17 08:09:03 51°18.529 2°51.006 15.3206 3.401343 26.65943 -3.020363
2011-10-17 08:10:03 51°18.53 2°51.001 15.3235 3.368429 26.371827 -3.020363
2011-10-17 08:11:03 51°18.531 2°50.996 15.3082 3.377847 26.45787 -3.020363
2011-10-17 08:12:03 51°18.531 2°50.992 15.3056 3.495853 27.484608 -3.020363
2011-10-17 08:13:03 51°18.532 2°50.988 15.3267 3.512107 27.626278 -3.020363
2011-10-17 08:14:03 51°18.565 2°50.989 15.3237 3.355491 26.255927 -3.020363
2011-10-17 08:15:03 51°18.618 2°51.116 15.3235 3.453306 27.105157 -3.020363
2011-10-17 08:16:03 51°18.682 2°51.38 15.3192 3.510761 27.606464 -3.020363
2011-10-17 08:17:03 51°18.725 2°51.675 15.3068 3.453927 27.113956 -3.020363
2011-10-17 08:18:02 51°18.777 2°51.96 15.2855 3.442333 27.023891 -3.020363
2011-10-17 08:19:03 51°18.832 2°52.257 15.2634 3.463451 27.221819 -3.020363
2011-10-17 08:20:03 51°18.89 2°52.544 15.2368 3.467281 27.269435 -3.020363
2011-10-17 08:21:03 51°18.962 2°52.822 15.2171 3.468524 27.297974 -3.020363
2011-10-17 08:22:03 51°19.027 2°53.103 15.201 3.483639 27.443031 -3.020363
2011-10-17 08:23:02 51°19.079 2°53.386 15.1895 3.352077 26.307139 -3.020363
2011-10-17 08:24:03 51°19.127 2°53.682 15.1824 3.479705 27.42594 -3.020363
2011-10-17 08:25:03 51°19.179 2°53.971 15.1785 3.421528 26.922993 -3.020363
2011-10-17 08:26:03 51°19.248 2°54.251 15.1731 3.400309 26.742107 -3.020363
2011-10-17 08:27:02 51°19.315 2°54.525 15.1658 3.437469 27.069324 -3.020363
2011-10-17 08:28:03 51°19.367 2°54.817 15.1625 3.376814 26.544875 -3.020363
2011-10-17 08:29:03 51°19.416 2°55.106 15.1597 3.404553 26.788053 -3.020363
2011-10-17 08:30:03 51°19.472 2°55.39 15.1503 3.37257 26.512407 -3.020363
2011-10-17 08:31:03 51°19.527 2°55.675 15.1382 3.419252 26.925744 -3.020363
2011-10-17 08:32:03 51°19.595 2°55.95 15.1272 3.388407 26.664785 -3.020363
2011-10-17 08:33:03 51°19.652 2°56.23 15.107 3.320409 26.081519 -3.020363
2011-10-17 08:34:03 51°19.701 2°56.516 15.085 3.411489 26.887418 -3.020363
2011-10-17 08:35:03 51°19.745 2°56.8 15.0465 3.32072 26.113289 -3.020363
2011-10-17 08:36:03 51°19.78 2°57.087 14.9764 3.343178 26.335879 -3.020363
2011-10-17 08:37:03 51°19.82 2°57.371 14.836 3.300955 26.021892 -3.020363
2011-10-17 08:38:02 51°19.873 2°57.644 14.7382 3.323724 26.317737 -3.020363
2011-10-17 08:39:02 51°19.922 2°57.922 14.7248 3.340491 26.51019 -3.020363
2011-10-17 08:40:03 51°19.969 2°58.205 14.7155 3.313583 26.282418 -3.020363
2011-10-17 08:41:02 51°20.024 2°58.472 14.7083 3.248597 25.71959 -3.020363
2011-10-17 08:42:03 51°20.063 2°58.757 14.6944 3.022558 23.757744 -3.020363
2011-10-17 08:43:03 51°20.111 2°59.029 14.7084 3.016456 23.706878 -3.020363
2011-10-17 08:44:03 51°20.17 2°59.294 14.7016 3.001562 23.577365 -3.020363
2011-10-17 08:45:02 51°20.214 2°59.56 14.6853 3.034866 23.866982 -3.020363
2011-10-17 08:46:03 51°20.252 2°59.839 14.6674 3.020903 23.758039 -3.020363
2011-10-17 08:47:03 51°20.309 3°0.102 14.6325 3.054828 24.061151 -3.020363
2011-10-17 08:48:03 51°20.355 3°0.37 14.5792 3.005804 23.659836 -3.020363
2011-10-17 08:49:03 51°20.413 3°0.633 14.5866 3.011182 23.7333 -3.020363
2011-10-17 08:50:03 51°20.47 3°0.893 14.6019 3.056484 24.122231 -3.020363
2011-10-17 08:51:03 51°20.523 3°1.156 14.6172 3.000633 23.629558 -3.020363
2011-10-17 08:52:03 51°20.562 3°1.424 14.6317 3.034453 23.914215 -3.020363
2011-10-17 08:53:03 51°20.601 3°1.695 14.6494 3.003321 23.633768 -3.020363
2011-10-17 08:54:02 51°20.649 3°1.958 14.6666 2.975398 23.382218 -3.020363
2011-10-17 08:55:03 51°20.7 3°2.231 14.6944 3.006941 23.644035 -3.020363
2011-10-17 08:56:03 51°20.76 3°2.494 14.7274 3.048105 23.983875 -3.020363
2011-10-17 08:57:03 51°20.804 3°2.766 14.7494 3.014904 23.677338 -3.020363
2011-10-17 08:58:03 51°20.859 3°3.032 14.7588 3.002079 23.555824 -3.020363
2011-10-17 08:59:03 51°20.907 3°3.301 14.761 2.982533 23.38186 -3.020363
2011-10-17 09:00:03 51°20.981 3°3.553 14.7679 2.993495 23.474614 -3.020363
2011-10-17 09:01:03 51°21.067 3°3.798 14.7746 3.019558 23.696014 -3.020363
2011-10-17 09:02:03 51°21.135 3°4.054 14.7734 3.009112 23.602145 -3.020363
2011-10-17 09:03:03 51°21.214 3°4.304 14.7753 2.958954 23.169389 -3.020363
2011-10-17 09:04:03 51°21.296 3°4.553 14.7753 3.001562 23.53687 -3.020363
2011-10-17 09:05:03 51°21.365 3°4.812 14.7707 2.982843 23.375121 -3.020363
2011-10-17 09:06:03 51°21.451 3°5.055 14.7744 2.985428 23.398942 -3.020363
2011-10-17 09:07:03 51°21.528 3°5.304 14.7753 2.975086 23.307646 -3.020363
2011-10-17 09:08:03 51°21.595 3°5.56 14.7854 3.001355 23.534084 -3.020363
2011-10-17 09:09:03 51°21.676 3°5.804 14.7794 2.96702 23.233581 -3.020363
2011-10-17 09:10:03 51°21.749 3°6.057 14.7773 2.986049 23.399837 -3.020363
2011-10-17 09:11:03 51°21.815 3°6.318 14.7849 2.967434 23.240106 -3.020363
2011-10-17 09:12:03 51°21.901 3°6.564 14.8143 2.97974 23.337442 -3.020363
2011-10-17 09:13:03 51°21.984 3°6.813 14.8258 2.974672 23.280388 -3.020363
2011-10-17 09:14:03 51°22.054 3°7.073 14.8301 2.94189 22.990553 -3.020363
2011-10-17 09:15:03 51°22.122 3°7.335 14.8327 2.932894 22.910689 -3.020363
2011-10-17 09:16:03 51°22.208 3°7.583 14.8397 2.944475 23.008429 -3.020363
2011-10-17 09:17:03 51°22.286 3°7.834 14.8416 2.943752 22.999278 -3.020363
2011-10-17 09:18:03 51°22.354 3°8.093 14.8431 2.935582 22.928004 -3.020363
2011-10-17 09:19:03 51°22.44 3°8.343 14.8411 2.949025 23.043703 -3.020363
2011-10-17 09:20:03 51°22.502 3°8.609 14.8413 2.921209 22.803894 -3.020363
2011-10-17 09:21:03 51°22.563 3°8.877 14.8473 2.95916 23.129504 -3.020363
2011-10-17 09:22:03 51°22.623 3°9.146 14.8475 2.958746 23.122028 -3.020363
2011-10-17 09:23:03 51°22.609 3°9.432 14.8418 2.913246 22.73112 -3.020363
2011-10-17 09:24:03 51°22.573 3°9.713 14.8266 2.999389 23.477288 -3.020363
2011-10-17 09:25:03 51°22.541 3°9.996 14.8126 2.965158 23.192944 -3.020363
2011-10-17 09:26:03 51°22.517 3°10.285 14.818 2.991219 23.423158 -3.020363
2011-10-17 09:27:03 51°22.483 3°10.573 14.8089 2.961435 23.162329 -3.020363
2011-10-17 09:28:03 51°22.473 3°10.857 14.7952 2.985221 23.375846 -3.020363
2011-10-17 09:29:03 51°22.477 3°11.142 14.7902 2.978396 23.322872 -3.020363
2011-10-17 09:30:03 51°22.481 3°11.427 14.7948 2.999493 23.508026 -3.020363
2011-10-17 09:31:03 51°22.502 3°11.712 14.7996 2.932067 22.92346 -3.020363
2011-10-17 09:32:02 51°22.523 3°11.994 14.8022 3.00363 23.537287 -3.020363
2011-10-17 09:33:03 51°22.524 3°12.285 14.8058 2.99939 23.500659 -3.020363
2011-10-17 09:34:03 51°22.536 3°12.57 14.796 2.994943 23.460761 -3.020363
2011-10-17 09:35:03 51°22.55 3°12.831 14.7943 3.001872 23.525587 -3.020363
2011-10-17 09:36:03 51°22.573 3°12.973 14.7897 2.999597 23.506429 -3.020363
2011-10-17 09:37:02 51°22.573 3°13.068 14.7824 3.011697 23.615493 -3.020363
2011-10-17 09:38:03 51°22.555 3°13.187 14.7863 2.98429 23.379202 -3.020363
2011-10-17 09:39:03 51°22.544 3°13.341 14.7992 2.999493 23.50952 -3.020363
2011-10-17 09:40:03 51°22.598 3°13.371 14.7983 2.969915 23.24773 -3.020363
2011-10-17 09:41:02 51°22.62 3°13.338 14.7997 2.969605 23.245546 -3.020363
2011-10-17 09:42:03 51°22.632 3°13.302 14.8008 2.963814 23.198053 -3.020363
2011-10-17 09:43:02 51°22.641 3°13.27 14.8214 3.010663 23.596052 -3.020363
2011-10-17 09:44:03 51°22.65 3°13.238 14.8623 2.960401 23.149006 -3.020363
2011-10-17 09:45:03 51°22.658 3°13.209 14.8571 2.977671 23.279642 -3.020363
2011-10-17 09:46:03 51°22.663 3°13.182 14.8152 2.981808 23.324166 -3.020363
2011-10-17 09:47:03 51°22.67 3°13.155 14.816 2.962056 23.170129 -3.020363
2011-10-17 09:48:03 51°22.679 3°13.119 14.8195 2.944372 23.017767 -3.020363
2011-10-17 09:49:03 51°22.721 3°13.035 14.8032 2.913143 22.749477 -3.020363
2011-10-17 09:50:02 51°22.834 3°12.901 14.7989 2.946234 23.040628 -3.020363
2011-10-17 09:51:03 51°23.019 3°12.77 14.8472 2.912109 22.744917 -3.020363
2011-10-17 09:52:02 51°23.198 3°12.619 14.8715 2.94582 23.010752 -3.020363
2011-10-17 09:53:03 51°23.37 3°12.428 14.8829 2.947267 23.007642 -3.020363
2011-10-17 09:54:03 51°23.539 3°12.243 14.8863 2.940545 22.947901 -3.020363
2011-10-17 09:55:03 51°23.714 3°12.081 14.8941 2.917175 22.739405 -3.020363
2011-10-17 09:56:03 51°23.883 3°11.897 14.8919 2.924724 22.806149 -3.020363
2011-10-17 09:57:03 51°24.056 3°11.721 14.9051 2.942613 22.955982 -3.020363
2011-10-17 09:58:03 51°24.203 3°11.49 14.8843 2.908593 22.667174 -3.020363
2011-10-17 09:59:02 51°24.3 3°11.185 14.8755 2.943234 22.970532 -3.020363
2011-10-17 10:00:02 51°24.395 3°10.874 14.8844 2.911281 22.697919 -3.020363
2011-10-17 10:01:03 51°24.491 3°10.558 14.8896 2.925448 22.813811 -3.020363
2011-10-17 10:02:02 51°24.549 3°10.237 14.9028 2.926585 22.8231 -3.020363
2011-10-17 10:03:03 51°24.576 3°9.888 14.9076 2.934547 22.883291 -3.020363
2011-10-17 10:04:02 51°24.605 3°9.554 14.9155 2.949335 23.0055 -3.020363
2011-10-17 10:05:03 51°24.63 3°9.21 14.9247 2.953678 23.038452 -3.020363
2011-10-17 10:06:02 51°24.637 3°8.878 14.9359 2.931238 22.839438 -3.020363
2011-10-17 10:07:03 51°24.648 3°8.538 14.9483 2.935374 22.870117 -3.020363
2011-10-17 10:08:02 51°24.664 3°8.212 14.9657 2.945612 22.949289 -3.020363
2011-10-17 10:09:03 51°24.682 3°7.878 14.9817 2.948094 22.961879 -3.020363
2011-10-17 10:10:02 51°24.738 3°7.574 14.9826 2.973533 23.169558 -3.020363
2011-10-17 10:11:03 51°24.876 3°7.356 14.97 2.970741 23.147534 -3.020363
2011-10-17 10:12:02 51°25.05 3°7.264 14.9648 2.951816 22.992373 -3.020363
2011-10-17 10:13:03 51°25.227 3°7.158 14.9647 2.978704 23.225217 -3.020363
2011-10-17 10:14:03 51°25.408 3°7.088 14.9636 2.947266 22.956715 -3.020363
2011-10-17 10:15:02 51°25.586 3°7.02 14.9654 2.970741 23.157291 -3.020363
2011-10-17 10:16:03 51°25.736 3°7.115 14.9674 2.989046 23.309193 -3.020363
2011-10-17 10:17:02 51°25.842 3°7.342 14.9703 2.99008 23.32103 -3.020363
2011-10-17 10:18:03 51°25.938 3°7.592 14.9775 2.943337 22.916718 -3.020363
2011-10-17 10:19:03 51°26.064 3°7.799 14.9807 2.984909 23.271188 -3.020363
2011-10-17 10:20:02 51°26.195 3°7.993 14.9807 2.991942 23.329168 -3.020363
2011-10-17 10:21:03 51°26.323 3°8.206 14.9954 2.994941 23.35347 -3.020363
2011-10-17 10:22:02 51°26.419 3°8.351 15.0064 2.979635 23.215113 -3.020363
2011-10-17 10:23:03 51°26.45 3°8.359 15.0123 2.996906 23.356092 -3.020363
2011-10-17 10:24:02 51°26.444 3°8.353 15.0335 2.990287 23.29875 -3.020363
2011-10-17 10:25:03 51°26.434 3°8.348 15.027 2.993596 23.305099 -3.020363
2011-10-17 10:26:02 51°26.423 3°8.348 15.0239 2.978083 23.185195 -3.020363
2011-10-17 10:27:03 51°26.411 3°8.349 15.024 3.005489 23.421959 -3.020363
2011-10-17 10:28:02 51°26.397 3°8.352 15.0299 2.983771 23.234003 -3.020363
2011-10-17 10:29:03 51°26.383 3°8.352 15.0342 3.009523 23.451185 -3.020363
2011-10-17 10:30:02 51°26.371 3°8.351 15.0403 2.975704 23.160402 -3.020363
2011-10-17 10:31:03 51°26.395 3°8.279 15.0317 2.985839 23.241974 -3.020363
2011-10-17 10:32:03 51°26.451 3°8.066 15.0237 2.983564 23.229784 -3.020363
2011-10-17 10:33:03 51°26.541 3°7.801 15.0251 2.925033 22.730579 -3.020363
2011-10-17 10:34:03 51°26.632 3°7.512 15.0195 2.970223 23.117772 -3.020363
2011-10-17 10:35:02 51°26.731 3°7.235 15.0211 2.976428 23.172949 -3.020363
2011-10-17 10:36:03 51°26.831 3°6.946 15.0294 2.956986 23.004275 -3.020363
2011-10-17 10:37:02 51°26.93 3°6.668 15.0456 2.977566 23.17832 -3.020363
2011-10-17 10:38:02 51°27.042 3°6.399 15.0881 2.986253 23.23917 -3.020363
2011-10-17 10:39:03 51°27.161 3°6.13 15.1002 2.960915 22.999259 -3.020363
2011-10-17 10:40:02 51°27.267 3°5.859 15.0962 2.992768 23.268648 -3.020363
2011-10-17 10:41:03 51°27.381 3°5.581 15.0718 2.965466 23.037239 -3.020363
2011-10-17 10:42:02 51°27.489 3°5.308 15.0286 2.963191 23.037598 -3.020363
2011-10-17 10:43:03 51°27.605 3°5.03 15.019 3.001456 23.387803 -3.020363
2011-10-17 10:44:02 51°27.722 3°4.766 15.0613 2.983771 23.230581 -3.020363
2011-10-17 10:45:03 51°27.849 3°4.497 15.12 3.002179 23.36158 -3.020363
2011-10-17 10:46:02 51°27.971 3°4.239 15.1331 2.966913 23.026912 -3.020363
2011-10-17 10:47:03 51°28.089 3°3.959 15.0217 2.982529 23.175576 -3.020363
2011-10-17 10:48:03 51°28.21 3°3.69 14.9806 2.991424 23.306558 -3.020363
2011-10-17 10:49:03 51°28.311 3°3.448 14.9412 2.983047 23.250294 -3.020363
2011-10-17 10:50:03 51°28.321 3°3.354 14.8965 2.961331 23.096917 -3.020363
2011-10-17 10:51:06 51°28.297 3°3.331 14.89 2.925758 22.809249 -3.020363
2011-10-17 10:52:05 51°28.277 3°3.308 14.8911 2.920174 22.764671 -3.020363
2011-10-17 10:53:03 51°28.262 3°3.287 14.8992 2.90942 22.671879 -3.020363
2011-10-17 10:54:02 51°28.251 3°3.266 14.901 2.902595 22.610935 -3.020363
2011-10-17 10:55:02 51°28.241 3°3.245 14.9289 2.882536 22.427103 -3.020363
2011-10-17 10:56:02 51°28.232 3°3.223 14.8999 2.904767 22.619533 -3.020363
2011-10-17 10:57:02 51°28.223 3°3.202 14.8961 2.925448 22.804659 -3.020363
2011-10-17 10:58:02 51°28.235 3°3.173 14.8956 2.911281 22.686416 -3.020363
2011-10-17 10:59:03 51°28.264 3°3.251 14.9141 2.925758 22.805878 -3.020363
2011-10-17 11:00:02 51°28.349 3°3.379 14.9156 2.919347 22.74556 -3.020363
2011-10-17 11:01:03 51°28.414 3°3.578 14.9101 2.955953 23.057032 -3.020363
2011-10-17 11:02:02 51°28.357 3°3.676 14.903 2.929067 22.828507 -3.020363
2011-10-17 11:03:03 51°28.282 3°3.73 14.8972 2.954299 23.049622 -3.020363
2011-10-17 11:04:02 51°28.22 3°3.672 14.8935 2.95161 23.029428 -3.020363
2011-10-17 11:05:03 51°28.202 3°3.628 14.8981 2.952231 23.038167 -3.020363
2011-10-17 11:06:02 51°28.192 3°3.602 14.8896 2.934237 22.883042 -3.020363
2011-10-17 11:07:03 51°28.181 3°3.586 14.8775 2.920278 22.769887 -3.020363
2011-10-17 11:08:03 51°28.169 3°3.573 14.883 2.936926 22.916788 -3.020363
2011-10-17 11:09:03 51°28.157 3°3.56 14.8942 2.910764 22.687249 -3.020363
2011-10-17 11:10:02 51°28.146 3°3.545 14.9044 2.935271 22.892409 -3.020363
2011-10-17 11:11:02 51°28.134 3°3.531 14.8981 2.94675 22.986195 -3.020363
2011-10-17 11:12:03 51°28.122 3°3.518 14.9066 2.93403 22.877401 -3.020363
2011-10-17 11:13:03 51°28.11 3°3.507 14.9109 2.937856 22.906881 -3.020363
2011-10-17 11:14:03 51°28.099 3°3.496 14.9135 2.931032 22.846822 -3.020363
2011-10-17 11:15:03 51°28.088 3°3.483 14.9119 2.958745 23.082979 -3.020363
2011-10-17 11:16:03 51°28.078 3°3.471 14.9112 2.966812 23.154286 -3.020363
2011-10-17 11:17:02 51°28.068 3°3.459 14.9066 2.961124 23.105377 -3.020363
2011-10-17 11:18:03 51°28.059 3°3.444 14.9054 2.952024 23.030066 -3.020363
2011-10-17 11:19:03 51°28.062 3°3.398 14.9152 2.960607 23.100931 -3.020363
2011-10-17 11:20:03 51°28.051 3°3.323 14.9094 2.964226 23.132053 -3.020363
2011-10-17 11:21:03 51°27.999 3°3.126 14.9039 2.950266 23.013013 -3.020363
2011-10-17 11:22:03 51°27.959 3°2.796 14.9182 2.958022 23.081141 -3.020363
2011-10-17 11:23:03 51°27.913 3°2.45 14.9339 2.962778 23.11131 -3.020363
2011-10-17 11:24:03 51°27.861 3°2.103 14.9515 2.941476 22.923455 -3.020363
2011-10-17 11:25:02 51°27.81 3°1.76 14.9582 2.954402 23.021838 -3.020363
2011-10-17 11:26:03 51°27.748 3°1.406 14.9752 2.970017 23.154001 -3.020363
2011-10-17 11:27:02 51°27.693 3°1.061 15.0347 2.963915 23.086992 -3.020363
2011-10-17 11:28:03 51°27.637 3°0.704 15.0598 2.936304 22.814121 -3.020363
2011-10-17 11:29:02 51°27.581 3°0.359 15.0144 2.960502 23.018436 -3.020363
2011-10-17 11:30:03 51°27.544 2°59.999 15.0406 2.960606 23.039665 -3.020363
2011-10-17 11:31:02 51°27.5 2°59.656 15.0899 2.937855 22.824038 -3.020363
2011-10-17 11:32:03 51°27.46 2°59.303 15.1241 2.978496 23.147355 -3.020363
2011-10-17 11:33:02 51°27.415 2°58.965 15.1479 2.968568 23.043962 -3.020363
2011-10-17 11:34:03 51°27.394 2°58.614 15.1758 2.956778 22.927759 -3.020363
2011-10-17 11:35:03 51°27.401 2°58.266 15.1751 2.975393 23.075737 -3.020363
2011-10-17 11:36:03 51°27.403 2°57.916 15.1924 2.950056 22.859802 -3.020363
2011-10-17 11:37:03 51°27.393 2°57.563 15.1725 2.960501 22.929778 -3.020363
2011-10-17 11:38:03 51°27.392 2°57.211 15.174 2.963707 22.97974 -3.020363
2011-10-17 11:39:03 51°27.383 2°56.857 15.1469 2.976634 23.091664 -3.020363
2011-10-17 11:40:02 51°27.338 2°56.512 15.1517 2.979633 23.129421 -3.020363
2011-10-17 11:41:02 51°27.264 2°56.174 15.346 2.983976 23.143779 -3.020363
2011-10-17 11:42:02 51°27.194 2°55.836 15.3696 2.983147 23.039766 -3.020363
2011-10-17 11:43:02 51°27.129 2°55.496 15.3784 2.991317 23.099691 -3.020363
2011-10-17 11:44:02 51°27.071 2°55.154 15.3943 2.995557 23.128558 -3.020363
2011-10-17 11:45:03 51°27.008 2°54.808 15.4197 3.002073 23.172434 -3.020363
2011-10-17 11:46:03 51°26.938 2°54.47 15.4409 3.006106 23.193724 -3.020363
2011-10-17 11:47:03 51°26.882 2°54.124 15.4578 2.99142 23.057359 -3.020363
2011-10-17 11:48:03 51°26.823 2°53.78 15.4824 3.009002 23.193759 -3.020363
2011-10-17 11:49:03 51°26.753 2°53.442 15.4851 2.989248 23.015477 -3.020363
2011-10-17 11:50:03 51°26.689 2°53.104 15.476 3.003003 23.130789 -3.020363
2011-10-17 11:51:03 51°26.624 2°52.768 15.5362 3.001555 23.113699 -3.020363
2011-10-17 11:52:03 51°26.569 2°52.429 15.556 3.014482 23.196027 -3.020363
2011-10-17 11:53:03 51°26.512 2°52.092 15.6009 3.011379 23.158673 -3.020363
2011-10-17 11:54:02 51°26.448 2°51.767 15.6873 3.004036 23.062528 -3.020363
2011-10-17 11:55:03 51°26.394 2°51.43 15.7091 3.034235 23.277354 -3.020363
2011-10-17 11:56:02 51°26.355 2°51.1 15.7369 3.041062 23.323073 -3.020363
2011-10-17 11:57:02 51°26.309 2°50.766 15.7534 3.033925 23.246436 -3.020363
2011-10-17 11:58:02 51°26.249 2°50.438 15.7691 3.040027 23.28744 -3.020363
2011-10-17 11:59:03 51°26.185 2°50.105 15.791 3.02927 23.186582 -3.020363
2011-10-17 12:00:02 51°26.151 2°49.776 15.8206 3.04075 23.271993 -3.020363
2011-10-17 12:01:03 51°26.113 2°49.438 15.8494 3.053162 23.357545 -3.020363
2011-10-17 12:02:02 51°26.067 2°49.162 15.8601 3.057506 23.379305 -3.020363
2011-10-17 12:03:03 51°26.037 2°49.009 15.8607 3.055851 23.361033 -3.020363
2011-10-17 12:04:03 51°26.038 2°48.893 15.8616 3.066194 23.447289 -3.020363
2011-10-17 12:05:03 51°26.041 2°48.788 15.8547 3.063608 23.426443 -3.020363
2011-10-17 12:06:03 51°26.032 2°48.68 15.844 3.072607 23.506209 -3.020363
2011-10-17 12:07:03 51°26.016 2°48.557 15.839 3.064022 23.439557 -3.020363
2011-10-17 12:08:03 51°26 2°48.483 15.8329 3.062988 23.432756 -3.020363
2011-10-17 12:09:05 51°25.995 2°48.475 15.8286 3.075607 23.543126 -3.020363
2011-10-17 12:10:05 51°25.99 2°48.472 15.8303 3.050369 23.332548 -3.020363
2011-10-17 12:11:03 51°25.986 2°48.47 15.8301 3.043336 23.271798 -3.020363
2011-10-17 12:12:03 51°25.983 2°48.471 15.8218 3.066195 23.46656 -3.020363
2011-10-17 12:13:03 51°25.977 2°48.475 15.83 3.072297 23.521947 -3.020363
2011-10-17 12:14:03 51°25.971 2°48.48 15.8247 3.065057 23.455029 -3.020363
2011-10-17 12:15:03 51°26.012 2°48.428 15.8272 3.066298 23.468398 -3.020363
2011-10-17 12:16:02 51°26.109 2°48.294 15.8105 3.056989 23.391276 -3.020363
2011-10-17 12:17:02 51°26.152 2°48.199 15.8002 3.067746 23.490277 -3.020363
2011-10-17 12:18:02 51°26.155 2°48.183 15.7981 3.056989 23.404263 -3.020363
2011-10-17 12:19:02 51°26.157 2°48.175 15.801 3.044888 23.303075 -3.020363
2011-10-17 12:20:02 51°26.157 2°48.168 15.8225 3.038578 23.248405 -3.020363
2011-10-17 12:21:03 51°26.154 2°48.162 15.793 3.021306 23.090407 -3.020363
2011-10-17 12:22:02 51°26.15 2°48.161 15.7877 3.042509 23.286832 -3.020363
2011-10-17 12:23:03 51°26.145 2°48.163 15.7847 3.054714 23.394193 -3.020363
2011-10-17 12:24:03 51°26.138 2°48.166 15.7838 3.050059 23.354407 -3.020363
2011-10-17 12:25:03 51°26.131 2°48.169 15.7881 3.025133 23.14453 -3.020363
2011-10-17 12:26:03 51°26.123 2°48.173 15.7829 3.053266 23.38052 -3.020363
2011-10-17 12:27:03 51°26.118 2°48.177 15.7783 3.022237 23.121057 -3.020363
2011-10-17 12:28:02 51°26.113 2°48.183 15.7794 3.045302 23.318555 -3.020363
2011-10-17 12:29:02 51°26.109 2°48.188 15.7782 3.045508 23.318862 -3.020363
2011-10-17 12:30:02 51°26.104 2°48.197 15.7774 3.039716 23.270924 -3.020363
2011-10-17 12:31:03 51°26.098 2°48.206 15.7764 3.038992 23.265291 -3.020363
2011-10-17 12:32:02 51°26.094 2°48.216 15.7759 3.039509 23.270135 -3.020363
2011-10-17 12:33:02 51°26.09 2°48.226 15.7777 3.036924 23.248788 -3.020363
2011-10-17 12:34:02 51°26.086 2°48.237 15.7776 3.025753 23.153575 -3.020363
2011-10-17 12:35:03 51°26.085 2°48.246 15.7741 3.016342 23.075143 -3.020363
2011-10-17 12:36:02 51°26.083 2°48.255 15.7711 3.032993 23.216572 -3.020363
2011-10-17 12:37:03 51°26.082 2°48.265 15.7707 3.027822 23.175318 -3.020363
2011-10-17 12:38:03 51°26.081 2°48.275 15.7733 3.023375 23.13684 -3.020363
2011-10-17 12:39:03 51°26.079 2°48.286 15.7713 3.01841 23.094488 -3.020363
2011-10-17 12:40:03 51°26.078 2°48.297 15.7728 3.027098 23.168255 -3.020363
2011-10-17 12:41:03 51°26.076 2°48.309 15.7701 3.042199 23.294755 -3.020363
2011-10-17 12:42:03 51°26.073 2°48.321 15.7703 3.044474 23.315887 -3.020363
2011-10-17 12:43:02 51°26.07 2°48.333 15.7683 3.039303 23.271741 -3.020363
2011-10-17 12:44:02 51°26.068 2°48.346 15.768 3.041164 23.288418 -3.020363
2011-10-17 12:45:03 51°26.067 2°48.36 15.7691 3.030615 23.199361 -3.020363
2011-10-17 12:46:03 51°26.067 2°48.373 15.77 3.045095 23.320168 -3.020363
2011-10-17 12:47:02 51°26.066 2°48.385 15.7709 3.025443 23.155722 -3.020363
2011-10-17 12:48:02 51°26.066 2°48.397 15.7727 3.035062 23.235465 -3.020363
2011-10-17 12:49:02 51°26.067 2°48.412 15.7714 2.998243 22.924464 -3.020363
2011-10-17 12:50:03 51°26.067 2°48.429 15.7775 3.024616 23.145882 -3.020363
2011-10-17 12:51:03 51°26.067 2°48.446 15.7719 3.038785 23.264502 -3.020363
2011-10-17 12:52:02 51°26.067 2°48.461 15.7732 3.040854 23.283402 -3.020363
2011-10-17 12:53:03 51°26.068 2°48.476 15.7679 3.031235 23.202689 -3.020363
2011-10-17 12:54:02 51°26.07 2°48.492 15.7642 3.022961 23.13716 -3.020363
2011-10-17 12:55:02 51°26.071 2°48.511 15.7603 3.041268 23.292648 -3.020363
2011-10-17 12:56:02 51°26.072 2°48.529 15.7595 3.044267 23.31846 -3.020363
2011-10-17 12:57:03 51°26.074 2°48.548 15.7593 3.044474 23.321647 -3.020363
2011-10-17 12:58:02 51°26.076 2°48.568 15.7649 3.037544 23.263601 -3.020363
2011-10-17 12:59:02 51°26.08 2°48.591 15.7649 3.038061 23.263657 -3.020363
2011-10-17 13:00:03 51°26.083 2°48.615 15.7624 3.035889 23.246755 -3.020363
2011-10-17 13:01:02 51°26.087 2°48.639 15.7651 3.008482 23.015974 -3.020363
2011-10-17 13:02:03 51°26.091 2°48.665 15.7639 3.005172 22.986649 -3.020363
2011-10-17 13:03:03 51°26.095 2°48.691 15.7618 3.01448 23.067514 -3.020363
2011-10-17 13:04:03 51°26.112 2°48.641 15.766 3.012308 23.049669 -3.020363
2011-10-17 13:05:02 51°26.026 2°48.52 15.768 3.02896 23.188736 -3.020363
2011-10-17 13:06:02 51°25.888 2°48.317 15.7797 3.045095 23.318728 -3.020363
2011-10-17 13:07:02 51°25.773 2°48.066 15.7944 3.032786 23.207663 -3.020363
2011-10-17 13:08:02 51°25.67 2°47.802 15.8078 3.036303 23.22921 -3.020363
2011-10-17 13:09:02 51°25.563 2°47.545 15.8197 3.040336 23.256066 -3.020363
2011-10-17 13:10:02 51°25.46 2°47.283 15.833 3.043646 23.276805 -3.020363
2011-10-17 13:11:02 51°25.369 2°47.013 15.8497 3.035578 23.20116 -3.020363
2011-10-17 13:12:03 51°25.266 2°46.746 15.8684 3.036302 23.198208 -3.020363
2011-10-17 13:13:02 51°25.176 2°46.483 15.8827 3.03713 23.194702 -3.020363
2011-10-17 13:14:02 51°25.093 2°46.211 15.8916 3.035888 23.176643 -3.020363
2011-10-17 13:15:02 51°24.998 2°45.95 15.8986 3.034544 23.160101 -3.020363
2011-10-17 13:16:02 51°24.913 2°45.684 15.9007 3.040232 23.204644 -3.020363
2011-10-17 13:17:02 51°24.832 2°45.416 15.9055 3.039715 23.198389 -3.020363
2011-10-17 13:18:02 51°24.75 2°45.149 15.9156 3.013548 22.975036 -3.020363
2011-10-17 13:19:03 51°24.659 2°44.883 15.9208 3.019236 23.017655 -3.020363
2011-10-17 13:20:03 51°24.569 2°44.622 15.9299 3.010031 22.936086 -3.020363
2011-10-17 13:21:02 51°24.49 2°44.359 15.94 3.014478 22.968736 -3.020363
2011-10-17 13:22:02 51°24.401 2°44.102 15.952 3.018822 22.999099 -3.020363
2011-10-17 13:23:02 51°24.319 2°43.838 15.9607 3.020373 23.005064 -3.020363
2011-10-17 13:24:03 51°24.237 2°43.57 15.9742 3.001033 22.837611 -3.020363
2011-10-17 13:25:02 51°24.148 2°43.32 15.9827 3.000723 22.828003 -3.020363
2011-10-17 13:26:03 51°24.056 2°43.062 15.9897 2.995345 22.778726 -3.020363
2011-10-17 13:27:03 51°23.973 2°42.803 15.9982 3.003722 22.844741 -3.020363
2011-10-17 13:28:02 51°23.894 2°42.548 16.0065 3.01665 22.948446 -3.020363
2011-10-17 13:29:02 51°23.815 2°42.286 16.0126 3.008789 22.876936 -3.020363
2011-10-17 13:30:03 51°23.733 2°42.02 16.0161 3.013857 22.917069 -3.020363
2011-10-17 13:31:03 51°23.649 2°41.758 16.0175 3.011168 22.89313 -3.020363
2011-10-17 13:32:03 51°23.56 2°41.503 16.0199 3.004135 22.832806 -3.020363
2011-10-17 13:33:02 51°23.482 2°41.244 16.0193 3.013754 22.912457 -3.020363
2011-10-17 13:34:02 51°23.4 2°40.983 16.0184 3.009617 22.877326 -3.020363
2011-10-17 13:35:02 51°23.312 2°40.729 16.0188 3.012926 22.905992 -3.020363
2011-10-17 13:36:02 51°23.255 2°40.453 16.0195 3.000412 22.800223 -3.020363
2011-10-17 13:37:02 51°23.204 2°40.175 16.0262 3.00248 22.817547 -3.020363
2011-10-17 13:38:02 51°23.139 2°39.905 16.0292 3.010961 22.884851 -3.020363
2011-10-17 13:39:02 51°23.078 2°39.634 16.0367 3.008789 22.863856 -3.020363
2011-10-17 13:40:03 51°23.023 2°39.357 16.0391 3.011375 22.882709 -3.020363
2011-10-17 13:41:02 51°22.968 2°39.091 16.0403 3.006307 22.838871 -3.020363
2011-10-17 13:42:02 51°22.908 2°38.826 16.0382 3.011788 22.883838 -3.020363
2011-10-17 13:43:02 51°22.845 2°38.563 16.0378 3.010651 22.874778 -3.020363
2011-10-17 13:44:02 51°22.791 2°38.299 16.036 3.011892 22.886573 -3.020363
2011-10-17 13:45:02 51°22.736 2°38.036 16.0402 3.003825 22.819487 -3.020363
2011-10-17 13:46:02 51°22.645 2°37.8 16.0397 3.007445 22.847464 -3.020363
2011-10-17 13:47:02 51°22.533 2°37.584 16.0392 3.004445 22.822352 -3.020363
2011-10-17 13:48:02 51°22.425 2°37.364 16.0436 3.007238 22.844799 -3.020363
2011-10-17 13:49:02 51°22.329 2°37.13 16.0415 3.00579 22.830813 -3.020363
2011-10-17 13:50:02 51°22.228 2°36.902 16.0503 3.000929 22.79059 -3.020363
2011-10-17 13:51:03 51°22.145 2°36.653 16.0515 3.000412 22.782542 -3.020363
2011-10-17 13:52:02 51°22.068 2°36.41 16.0508 2.978073 22.594779 -3.020363
2011-10-17 13:53:02 51°21.983 2°36.173 16.0406 2.977763 22.594491 -3.020363
2011-10-17 13:54:02 51°21.907 2°35.928 16.0287 2.98676 22.674816 -3.020363
2011-10-17 13:55:03 51°21.818 2°35.691 16.0241 2.990587 22.712393 -3.020363
2011-10-17 13:56:02 51°21.744 2°35.451 16.0317 2.986243 22.677434 -3.020363
2011-10-17 13:57:02 51°21.659 2°35.211 16.0501 2.988932 22.694375 -3.020363
2011-10-17 13:58:03 51°21.572 2°34.963 16.0457 2.988312 22.682701 -3.020363
2011-10-17 13:59:02 51°21.49 2°34.72 16.0515 2.986967 22.671456 -3.020363
2011-10-17 14:00:02 51°21.403 2°34.476 16.0531 2.983968 22.644063 -3.020363
2011-10-17 14:01:03 51°21.322 2°34.221 16.0571 3.001136 22.785346 -3.020363
2011-10-17 14:02:03 51°21.239 2°33.976 16.0587 3.001549 22.788342 -3.020363
2011-10-17 14:03:02 51°21.157 2°33.733 16.0525 2.997412 22.753267 -3.020363
2011-10-17 14:04:02 51°21.069 2°33.491 16.043 2.992655 22.717181 -3.020363
2011-10-17 14:05:02 51°20.991 2°33.245 16.0336 2.99431 22.736127 -3.020363
2011-10-17 14:06:02 51°20.913 2°32.998 16.029 3.006721 22.8442 -3.020363
2011-10-17 14:07:02 51°20.838 2°32.752 16.0266 3.001756 22.805894 -3.020363
2011-10-17 14:08:03 51°20.755 2°32.507 16.0249 3.000722 22.798165 -3.020363
2011-10-17 14:09:03 51°20.674 2°32.262 16.0232 2.963388 22.486283 -3.020363
2011-10-17 14:10:02 51°20.594 2°32.021 16.0242 2.954081 22.40987 -3.020363
2011-10-17 14:11:03 51°20.506 2°31.777 16.0264 2.945705 22.339432 -3.020363
2011-10-17 14:12:02 51°20.431 2°31.535 16.0281 2.929987 22.206824 -3.020363
2011-10-17 14:13:02 51°20.351 2°31.292 16.0298 2.945291 22.332785 -3.020363
2011-10-17 14:14:02 51°20.262 2°31.062 16.0351 2.945084 22.330602 -3.020363
2011-10-17 14:15:02 51°20.182 2°30.827 16.0387 2.933296 22.229453 -3.020363
2011-10-17 14:16:02 51°20.137 2°30.573 16.0455 2.924093 22.150399 -3.020363
2011-10-17 14:17:02 51°20.086 2°30.33 16.0502 2.936398 22.250805 -3.020363
2011-10-17 14:18:03 51°20.035 2°30.107 16.0558 2.932055 22.210937 -3.020363
2011-10-17 14:19:02 51°20.013 2°30.029 16.0569 2.933502 22.220295 -3.020363
2011-10-17 14:20:03 51°20.03 2°30.025 16.0598 2.926367 22.160332 -3.020363
2011-10-17 14:21:02 51°20.058 2°30.062 16.0617 2.912615 22.044333 -3.020363
2011-10-17 14:22:02 51°20.083 2°30.104 16.0598 2.912511 22.043022 -3.020363
2011-10-17 14:23:02 51°20.104 2°30.165 16.0702 2.92585 22.154665 -3.020363
2011-10-17 14:24:02 51°20.124 2°30.227 16.0563 2.927401 22.165791 -3.020363
2011-10-17 14:25:02 51°20.144 2°30.293 16.0544 2.9304 22.195324 -3.020363
2011-10-17 14:26:02 51°20.162 2°30.361 16.0531 2.927505 22.172079 -3.020363
2011-10-17 14:27:02 51°20.181 2°30.429 16.0506 2.938363 22.264022 -3.020363
2011-10-17 14:28:02 51°20.202 2°30.498 16.0523 2.930814 22.201491 -3.020363
2011-10-17 14:29:02 51°20.224 2°30.555 16.0708 2.923162 22.137215 -3.020363
2011-10-17 14:30:02 51°20.247 2°30.602 16.081 2.928435 22.172604 -3.020363
2011-10-17 14:31:02 51°20.248 2°30.596 16.0533 2.927712 22.165665 -3.020363
2011-10-17 14:32:02 51°20.19 2°30.664 16.0557 2.93981 22.27474 -3.020363
2011-10-17 14:33:02 51°20.075 2°30.875 16.0555 2.941568 22.285774 -3.020363
2011-10-17 14:34:02 51°19.937 2°31.124 16.0397 2.957907 22.42399 -3.020363
2011-10-17 14:35:02 51°19.797 2°31.369 16.0194 2.97042 22.535874 -3.020363
2011-10-17 14:36:02 51°19.673 2°31.635 16.0062 2.974661 22.582841 -3.020363
2011-10-17 14:37:02 51°19.551 2°31.902 16.0084 2.972386 22.570265 -3.020363
2011-10-17 14:38:02 51°19.427 2°32.163 16.0072 2.974351 22.584858 -3.020363
2011-10-17 14:39:02 51°19.308 2°32.43 16.0029 2.96887 22.53993 -3.020363
2011-10-17 14:40:03 51°19.186 2°32.697 15.9869 2.971041 22.561322 -3.020363
2011-10-17 14:41:02 51°19.07 2°32.963 15.9702 2.977453 22.625144 -3.020363
2011-10-17 14:42:02 51°18.944 2°33.223 15.9561 2.998654 22.810662 -3.020363
2011-10-17 14:43:02 51°18.819 2°33.487 15.9479 2.98976 22.743555 -3.020363
2011-10-17 14:44:02 51°18.694 2°33.752 15.9499 3.011893 22.932933 -3.020363
2011-10-17 14:45:03 51°18.564 2°34.021 15.9514 2.998034 22.815726 -3.020363
2011-10-17 14:46:02 51°18.441 2°34.285 15.9513 3.010445 22.919374 -3.020363
2011-10-17 14:47:03 51°18.316 2°34.555 15.9656 3.002791 22.853292 -3.020363
2011-10-17 14:48:02 51°18.197 2°34.825 15.9756 2.995035 22.780318 -3.020363
2011-10-17 14:49:02 51°18.074 2°35.096 15.9751 3.018615 22.974316 -3.020363
2011-10-17 14:50:02 51°17.949 2°35.359 15.9719 3.004756 22.858083 -3.020363
2011-10-17 14:51:03 51°17.794 2°35.568 15.967 3.007652 22.883301 -3.020363
2011-10-17 14:52:02 51°17.627 2°35.73 15.97 3.011996 22.922543 -3.020363
2011-10-17 14:53:03 51°17.453 2°35.897 15.9693 3.009307 22.898582 -3.020363
2011-10-17 14:54:02 51°17.285 2°36.059 15.9701 3.010651 22.909859 -3.020363
2011-10-17 14:55:02 51°17.118 2°36.233 15.9698 2.999378 22.815331 -3.020363
2011-10-17 14:56:03 51°16.952 2°36.417 15.9714 2.988726 22.725587 -3.020363
2011-10-17 14:57:02 51°16.793 2°36.591 15.9556 2.999482 22.816198 -3.020363
2011-10-17 14:58:02 51°16.695 2°36.714 15.9441 2.986037 22.712812 -3.020363
2011-10-17 14:59:02 51°16.649 2°36.84 15.9351 2.999172 22.829472 -3.020363
2011-10-17 15:00:02 51°16.616 2°36.899 15.9265 2.98066 22.67888 -3.020363
2011-10-17 15:01:02 51°16.581 2°36.933 15.922 3.018926 23.004678 -3.020363
2011-10-17 15:02:02 51°16.51 2°36.955 15.9167 3.02751 23.079636 -3.020363
2011-10-17 15:03:02 51°16.509 2°36.9 15.9137 2.995345 22.813717 -3.020363
2011-10-17 15:04:02 51°16.53 2°36.872 15.9146 2.989554 22.766977 -3.020363
2011-10-17 15:05:02 51°16.564 2°36.9 15.9165 2.991415 22.782134 -3.020363
2011-10-17 15:06:02 51°16.6 2°36.941 15.9452 2.994828 22.809377 -3.020363
2011-10-17 15:07:02 51°16.635 2°36.992 15.9543 2.994518 22.7937 -3.020363
2011-10-17 15:08:02 51°16.667 2°37.048 15.918 2.989657 22.753396 -3.020363
2011-10-17 15:09:03 51°16.699 2°37.106 15.915 2.991829 22.783738 -3.020363
2011-10-17 15:10:02 51°16.73 2°37.161 15.91 2.987279 22.74835 -3.020363
2011-10-17 15:11:02 51°16.763 2°37.215 15.9369 2.983039 22.715099 -3.020363
2011-10-17 15:12:02 51°16.797 2°37.262 15.9356 2.994001 22.790762 -3.020363
2011-10-17 15:13:02 51°16.832 2°37.307 15.932 2.982935 22.704463 -3.020363
2011-10-17 15:14:03 51°16.86 2°37.297 15.9254 2.98459 22.716015 -3.020363
2011-10-17 15:15:02 51°16.834 2°37.318 15.9258 2.989657 22.761317 -3.020363
2011-10-17 15:16:02 51°16.804 2°37.486 15.9199 2.983555 22.710597 -3.020363
2011-10-17 15:17:02 51°16.729 2°37.61 15.9027 3.008273 22.918503 -3.020363
2011-10-17 15:18:02 51°16.615 2°37.814 15.8842 3.000413 22.864689 -3.020363
2011-10-17 15:19:02 51°16.509 2°38.098 15.8822 3.022132 23.055694 -3.020363
2011-10-17 15:20:02 51°16.355 2°38.297 15.8784 3.009204 22.947001 -3.020363
2011-10-17 15:21:02 51°16.18 2°38.431 15.856 3.003413 22.902084 -3.020363
2011-10-17 15:22:02 51°15.995 2°38.477 15.8265 2.987693 22.784033 -3.020363
2011-10-17 15:23:02 51°15.812 2°38.561 15.8032 2.964424 22.60483 -3.020363
2011-10-17 15:24:02 51°15.629 2°38.647 15.7969 2.964942 22.619859 -3.020363
2011-10-17 15:25:02 51°15.444 2°38.719 15.7967 2.97125 22.675684 -3.020363
2011-10-17 15:26:02 51°15.261 2°38.795 15.7987 2.965769 22.630068 -3.020363
2011-10-17 15:27:02 51°15.078 2°38.879 15.7963 2.96701 22.640035 -3.020363
2011-10-17 15:28:02 51°14.895 2°38.955 15.7997 2.959461 22.576116 -3.020363
2011-10-17 15:29:02 51°14.712 2°39.025 15.8053 2.964218 22.614704 -3.020363
2011-10-17 15:30:02 51°14.531 2°39.114 15.8008 2.962149 22.594535 -3.020363
2011-10-17 15:31:02 51°14.349 2°39.2 15.7672 2.959357 22.577567 -3.020363
2011-10-17 15:32:02 51°14.164 2°39.266 15.7315 2.958737 22.588139 -3.020363
2011-10-17 15:33:02 51°13.98 2°39.341 15.645 2.947879 22.52325 -3.020363
2011-10-17 15:34:03 51°13.793 2°39.426 15.5639 2.954809 22.6324 -3.020363
2011-10-17 15:35:02 51°13.612 2°39.498 15.5428 2.939918 22.54218 -3.020363
2011-10-17 15:36:03 51°13.425 2°39.571 15.5259 2.938988 22.546917 -3.020363
2011-10-17 15:37:02 51°13.246 2°39.654 15.5307 2.955017 22.690398 -3.020363
2011-10-17 15:38:02 51°13.062 2°39.727 15.5826 2.939195 22.549599 -3.020363
2011-10-17 15:39:02 51°12.88 2°39.805 15.5286 2.943951 22.570173 -3.020363
2011-10-17 15:40:02 51°12.699 2°39.894 15.504 2.926889 22.454939 -3.020363
2011-10-17 15:41:02 51°12.518 2°39.968 15.4959 2.93175 22.505333 -3.020363
2011-10-17 15:42:02 51°12.336 2°40.038 15.4518 2.937437 22.564183 -3.020363
2011-10-17 15:43:03 51°12.15 2°40.103 15.4074 2.935266 22.570153 -3.020363
2011-10-17 15:44:02 51°11.971 2°40.088 15.4148 2.932268 22.564907 -3.020363
2011-10-17 15:45:02 51°11.79 2°40.066 15.4195 2.910346 22.375006 -3.020363
2011-10-17 15:46:02 51°11.626 2°40.047 15.4282 2.91169 22.382666 -3.020363
2011-10-17 15:47:02 51°11.513 2°40.041 15.4082 2.906623 22.339317 -3.020363
2011-10-17 15:48:02 51°11.407 2°40.215 15.4259 2.921513 22.477048 -3.020363
2011-10-17 15:49:03 51°11.352 2°40.553 15.4388 2.92658 22.503143 -3.020363
2011-10-17 15:50:03 51°11.284 2°40.884 15.4065 2.92689 22.509043 -3.020363
2011-10-17 15:51:03 51°11.203 2°41.204 15.4029 2.928752 22.536515 -3.020363
2011-10-17 15:52:03 51°11.127 2°41.527 15.3337 2.922547 22.488615 -3.020363
2011-10-17 15:53:02 51°11.072 2°41.835 15.2383 2.907451 22.407787 -3.020363
2011-10-17 15:54:02 51°11.058 2°42.035 15.1946 2.900317 22.395807 -3.020363
2011-10-17 15:55:02 51°11.111 2°42.133 15.1915 2.886152 22.296372 -3.020363
2011-10-17 15:56:02 51°11.126 2°42.177 15.1905 2.890805 22.337351 -3.020363
2011-10-17 15:57:02 51°11.138 2°42.219 15.1893 2.891632 22.344389 -3.020363
2011-10-17 15:58:02 51°11.151 2°42.264 15.1949 2.890908 22.338698 -3.020363
2011-10-17 15:59:03 51°11.168 2°42.308 15.2029 2.882637 22.265543 -3.020363
2011-10-17 16:00:03 51°11.186 2°42.348 15.2422 2.887186 22.291643 -3.020363
2011-10-17 16:01:02 51°11.203 2°42.385 15.2284 2.887496 22.283565 -3.020363
2011-10-17 16:02:03 51°11.219 2°42.427 15.1975 2.881396 22.245221 -3.020363
2011-10-17 16:03:03 51°11.235 2°42.467 15.1962 2.886255 22.296318 -3.020363
2011-10-17 16:04:02 51°11.29 2°42.498 15.2159 2.896182 22.379353 -3.020363
2011-10-17 16:05:02 51°11.316 2°42.639 15.2361 2.900938 22.406702 -3.020363
2011-10-17 16:06:02 51°11.257 2°42.881 15.2184 2.902282 22.405957 -3.020363
2011-10-17 16:07:02 51°11.199 2°43.205 15.2004 2.879534 22.232193 -3.020363
2011-10-17 16:08:03 51°11.213 2°43.565 15.2383 2.879534 22.231263 -3.020363
2011-10-17 16:09:02 51°11.267 2°43.903 15.2725 2.903626 22.417384 -3.020363
2011-10-17 16:10:02 51°11.332 2°44.244 15.2908 2.886255 22.253497 -3.020363
2011-10-17 16:11:02 51°11.395 2°44.587 15.308 2.892045 22.290557 -3.020363
2011-10-17 16:12:03 51°11.469 2°44.929 15.3288 2.902385 22.36899 -3.020363
2011-10-17 16:13:02 51°11.553 2°45.253 15.3464 2.893802 22.285487 -3.020363
2011-10-17 16:14:02 51°11.645 2°45.579 15.3552 2.892665 22.267029 -3.020363
2011-10-17 16:15:02 51°11.716 2°45.919 15.3701 2.900523 22.327131 -3.020363
2011-10-17 16:16:02 51°11.784 2°46.259 15.3937 2.896283 22.282852 -3.020363
2011-10-17 16:17:02 51°11.868 2°46.591 15.3986 2.903315 22.340097 -3.020363
2011-10-17 16:18:02 51°11.962 2°46.917 15.4083 2.915206 22.439007 -3.020363
2011-10-17 16:19:02 51°12.044 2°47.251 15.4154 2.897834 22.284861 -3.020363
2011-10-17 16:20:03 51°12.13 2°47.589 15.4091 2.883048 22.159709 -3.020363
2011-10-17 16:21:03 51°12.224 2°47.914 15.3991 2.91169 22.406411 -3.020363
2011-10-17 16:22:03 51°12.304 2°48.249 15.3814 2.907864 22.37958 -3.020363
2011-10-17 16:23:03 51°12.391 2°48.578 15.361 2.908071 22.390652 -3.020363
2011-10-17 16:24:02 51°12.489 2°48.891 15.3376 2.899696 22.332675 -3.020363
2011-10-17 16:25:02 51°12.605 2°49.196 15.3213 2.887909 22.247575 -3.020363
2011-10-17 16:26:02 51°12.719 2°49.503 15.3111 2.907865 22.424386 -3.020363
2011-10-17 16:27:02 51°12.834 2°49.809 15.2984 2.905384 22.409858 -3.020363
2011-10-17 16:28:02 51°12.945 2°50.121 15.2919 2.88398 22.230942 -3.020363
2011-10-17 16:29:02 51°13.048 2°50.437 15.2906 2.889253 22.281742 -3.020363
2011-10-17 16:30:03 51°13.15 2°50.76 15.2716 2.885531 22.253392 -3.020363
2011-10-17 16:31:02 51°13.266 2°51.059 15.2484 2.886358 22.267389 -3.020363
2011-10-17 16:32:02 51°13.388 2°51.358 15.2354 2.864128 22.088828 -3.020363
2011-10-17 16:33:02 51°13.499 2°51.668 15.2321 2.870332 22.146587 -3.020363
2011-10-17 16:34:02 51°13.628 2°51.96 15.2357 2.87271 22.172346 -3.020363
2011-10-17 16:35:02 51°13.758 2°52.249 15.2175 2.879638 22.240048 -3.020363
2011-10-17 16:36:02 51°13.877 2°52.553 15.192 2.891012 22.342383 -3.020363
2011-10-17 16:37:02 51°14.001 2°52.852 15.1694 2.885015 22.303031 -3.020363
2011-10-17 16:38:02 51°14.122 2°53.155 15.148 2.888014 22.339311 -3.020363
2011-10-17 16:39:02 51°14.243 2°53.455 15.123 2.895045 22.412818 -3.020363
2011-10-17 16:40:03 51°14.367 2°53.759 15.0884 2.867645 22.192896 -3.020363
2011-10-17 16:41:03 51°14.479 2°54.066 15.322 0.107384 0.662574 -3.020363
2011-10-17 16:42:02 51°14.58 2°54.372 15.4551 0.092989 0.569877 -3.020363
2011-10-17 16:43:03 51°14.629 2°54.705 15.5878 0.082193 0.500606 -3.020363
2011-10-17 16:44:02 51°14.539 2°54.985 15.7012 0.075098 0.455216 -3.020363
2011-10-17 16:45:02 51°14.391 2°55.162 15.809 0.069443 0.419169 -3.020363
2011-10-17 16:46:03 51°14.26 2°55.302 15.9177 0.065844 0.396189 -3.020363
2011-10-17 16:47:03 51°14.133 2°55.414 15.9912 0.062143 0.372705 -3.020363
2011-10-17 16:48:03 51°14.003 2°55.506 16.0792 0.05875 0.351259 -3.020363
2011-10-17 16:49:02 51°13.881 2°55.591 16.2102 0.056385 0.336203 -3.020363
2011-10-17 16:50:03 51°13.776 2°55.685 16.2574 0.054534 0.324382 -3.020363
2011-10-17 16:51:02 51°13.707 2°55.8 16.3918 0.052992 0.314476 -3.020363
2011-10-17 16:52:02 51°13.663 2°55.896 16.5173 0.051656 0.305868 -3.020363